Time;durP1;ratioP1;P1;durP2;ratioP2;P2;SDS_P1;SDS_P2;PMS_P1;PMS_P2;Temp;Humidity;BMP_temperature;BMP_pressure;BME280_temperature;BME280_humidity;BME280_pressure;Samples;Min_cycle;Max_cycle;Signal;HPM_P1;HPM_P2
2021/06/16 00:00:21;;;;;;;0.65;0.50;;;;;;;19.03;65.87;100544.03;4934500;29;20086;-44
2021/06/16 00:02:48;;;;;;;0.30;0.30;;;;;;;19.02;65.76;100550.84;4937170;29;20130;-46
2021/06/16 00:05:18;;;;;;;1.58;0.50;;;;;;;18.94;66.23;100546.47;4933993;29;20094;-45
2021/06/16 00:07:45;;;;;;;1.97;0.60;;;;;;;18.94;66.05;100542.84;4933719;29;20525;-45
2021/06/16 00:10:15;;;;;;;1.83;0.60;;;;;;;18.91;66.46;100538.06;4933632;29;20142;-45
2021/06/16 00:12:42;;;;;;;1.40;0.68;;;;;;;18.87;66.47;100538.09;4915875;29;20043;-47
2021/06/16 00:15:14;;;;;;;2.80;0.95;;;;;;;18.91;66.65;100532.44;4935255;29;20512;-45
2021/06/16 00:17:41;;;;;;;1.45;0.57;;;;;;;19.00;66.25;100522.41;4932969;29;20044;-45
2021/06/16 00:20:09;;;;;;;1.63;0.60;;;;;;;18.97;66.54;100514.00;4931071;29;20660;-46
2021/06/16 00:22:37;;;;;;;0.60;0.50;;;;;;;18.97;66.36;100500.75;4940739;29;20044;-48
2021/06/16 00:25:06;;;;;;;0.68;0.30;;;;;;;18.94;66.67;100500.78;4941217;29;20067;-46
2021/06/16 00:27:33;;;;;;;1.20;0.50;;;;;;;18.84;66.56;100511.66;4937259;29;20052;-50
2021/06/16 00:30:01;;;;;;;0.60;0.60;;;;;;;18.79;66.84;100503.66;4936493;29;20055;-46
2021/06/16 00:32:28;;;;;;;1.20;0.50;;;;;;;18.79;66.92;100503.66;4933524;29;20609;-47
2021/06/16 00:34:55;;;;;;;3.13;1.52;;;;;;;18.77;66.75;100511.66;4926355;29;20078;-45
2021/06/16 00:37:21;;;;;;;2.03;0.80;;;;;;;18.78;66.90;100496.44;4936105;29;20052;-45
2021/06/16 00:39:48;;;;;;;0.63;0.45;;;;;;;18.78;67.03;100502.03;4937800;29;20366;-47
2021/06/16 00:42:15;;;;;;;1.40;0.68;;;;;;;18.75;67.24;100496.44;4943722;29;20091;-47
2021/06/16 00:44:42;;;;;;;1.50;0.60;;;;;;;18.75;67.21;100493.63;4942150;29;20078;-44
2021/06/16 00:47:09;;;;;;;1.25;0.45;;;;;;;18.71;67.36;100488.06;4943288;29;20131;-49
2021/06/16 00:49:38;;;;;;;3.53;0.40;;;;;;;18.73;67.29;100494.06;4950944;29;20106;-46
2021/06/16 00:52:05;;;;;;;1.10;1.00;;;;;;;18.70;67.69;100483.66;4939820;29;20082;-43
2021/06/16 00:54:34;;;;;;;4.63;1.42;;;;;;;18.69;67.63;100484.06;4937007;29;20091;-44
2021/06/16 00:57:02;;;;;;;0.65;0.50;;;;;;;18.71;67.43;100484.44;4942156;29;20499;-47
2021/06/16 00:59:40;;;;;;;0.40;0.40;;;;;;;18.68;67.88;100486.06;4939441;29;20051;-47
2021/06/16 01:02:10;;;;;;;2.60;1.13;;;;;;;18.65;67.81;100486.06;4949648;29;20035;-44
2021/06/16 01:04:37;;;;;;;1.67;0.60;;;;;;;18.59;68.22;100479.28;4939085;29;20044;-45
2021/06/16 01:07:11;;;;;;;1.75;0.57;;;;;;;18.54;68.61;100469.28;4942533;29;20565;-47
2021/06/16 01:09:58;;;;;;;0.93;0.70;;;;;;;18.44;69.32;100458.88;4942356;29;20043;-44
2021/06/16 01:12:25;;;;;;;0.50;0.50;;;;;;;18.42;68.57;100468.91;4927654;29;20051;-47
2021/06/16 01:15:01;;;;;;;1.20;0.80;;;;;;;18.43;69.07;100462.88;4944953;29;20060;-48
2021/06/16 01:17:54;;;;;;;1.52;0.57;;;;;;;18.47;69.13;100452.50;4939753;29;20486;-45
2021/06/16 01:20:45;;;;;;;1.13;0.60;;;;;;;18.47;69.57;100452.50;4936164;29;20050;-47
2021/06/16 01:23:15;;;;;;;0.93;0.63;;;;;;;18.45;68.73;100454.06;4947465;29;20105;-43
2021/06/16 01:26:00;;;;;;;0.93;0.85;;;;;;;18.43;69.54;100446.06;4936336;29;20560;-45
2021/06/16 01:28:44;;;;;;;0.70;0.70;;;;;;;18.48;68.82;100437.25;4935600;29;20036;-47
2021/06/16 01:31:16;;;;;;;0.88;0.50;;;;;;;18.50;69.18;100448.06;4938041;29;20042;-46
2021/06/16 01:33:44;;;;;;;0.98;0.80;;;;;;;18.48;68.97;100437.25;4928012;29;20043;-45
2021/06/16 01:36:12;;;;;;;1.60;0.90;;;;;;;18.48;68.99;100437.25;4944448;29;20196;-45
2021/06/16 01:38:42;;;;;;;1.17;0.52;;;;;;;18.44;69.43;100424.44;4938227;29;20127;-48
2021/06/16 01:41:10;;;;;;;1.73;0.88;;;;;;;18.43;69.33;100434.03;4936004;29;20429;-44
2021/06/16 01:43:40;;;;;;;0.63;0.52;;;;;;;18.39;69.71;100431.25;4919033;29;20048;-45
2021/06/16 01:46:08;;;;;;;1.13;0.60;;;;;;;18.39;69.66;100433.25;4935235;29;20083;-48
2021/06/16 01:48:37;;;;;;;1.95;1.13;;;;;;;18.37;69.69;100442.09;4940066;29;20063;-46
2021/06/16 01:51:07;;;;;;;1.55;0.50;;;;;;;18.37;69.69;100441.28;4935943;29;20417;-45
2021/06/16 01:53:35;;;;;;;1.35;0.70;;;;;;;18.34;69.87;100442.91;4937269;29;20127;-49
2021/06/16 01:56:03;;;;;;;0.55;0.50;;;;;;;18.33;69.94;100446.88;4938600;29;20075;-49
2021/06/16 01:58:30;;;;;;;2.35;0.80;;;;;;;18.33;69.99;100441.28;4935523;29;20036;-44
2021/06/16 02:00:58;;;;;;;0.82;0.57;;;;;;;18.31;70.02;100429.69;4935233;29;20035;-46
2021/06/16 02:03:25;;;;;;;1.38;0.90;;;;;;;18.26;70.30;100427.31;4935807;29;20043;-46
2021/06/16 02:05:52;;;;;;;0.90;0.85;;;;;;;18.22;70.58;100423.69;4936986;29;20071;-46
2021/06/16 02:08:24;;;;;;;0.68;0.68;;;;;;;18.23;70.63;100430.91;4931025;29;20044;-50
2021/06/16 02:10:52;;;;;;;1.10;1.00;;;;;;;18.26;70.48;100432.91;4919236;29;20072;-52
2021/06/16 02:13:47;;;;;;;2.55;1.20;;;;;;;18.23;71.00;100431.72;4934940;29;20047;-46
2021/06/16 02:16:18;;;;;;;2.00;0.73;;;;;;;18.24;70.59;100424.13;4941545;29;20122;-45
2021/06/16 02:18:51;;;;;;;0.88;0.80;;;;;;;18.25;70.59;100418.09;4938905;29;20043;-51
2021/06/16 02:21:20;;;;;;;1.05;1.00;;;;;;;18.24;70.73;100422.09;4938804;29;20039;-45
2021/06/16 02:23:47;;;;;;;1.33;0.52;;;;;;;18.23;70.66;100414.91;4944371;29;20071;-48
2021/06/16 02:26:15;;;;;;;0.68;0.60;;;;;;;18.30;70.60;100422.47;4935381;29;20052;-47
2021/06/16 02:28:43;;;;;;;0.80;0.77;;;;;;;18.32;70.55;100416.47;4936110;29;20090;-44
2021/06/16 02:31:10;;;;;;;2.28;1.00;;;;;;;18.31;70.83;100421.28;4934741;29;20066;-43
2021/06/16 02:33:37;;;;;;;1.67;0.60;;;;;;;18.35;70.69;100419.25;4938261;29;20382;-43
2021/06/16 02:36:06;;;;;;;0.55;0.50;;;;;;;18.33;70.56;100421.66;4942218;29;20083;-43
2021/06/16 02:38:35;;;;;;;1.25;1.15;;;;;;;18.31;70.67;100410.06;4946244;29;20785;-45
2021/06/16 02:41:08;;;;;;;;;;;;;;;18.27;71.15;100426.88;4918081;29;20063;-44
2021/06/16 02:43:36;;;;;;;0.10;0.00;;;;;;;18.06;70.19;100426.13;4940221;29;19926;-46
2021/06/16 02:46:04;;;;;;;0.00;0.00;;;;;;;17.75;70.44;100438.19;4934875;29;20458;-46
2021/06/16 02:48:33;;;;;;;0.03;0.00;;;;;;;17.60;70.61;100440.19;4936153;29;20043;-43
2021/06/16 02:51:00;;;;;;;0.10;0.10;;;;;;;17.48;70.56;100446.97;4942630;29;20106;-45
2021/06/16 02:53:27;;;;;;;0.20;0.10;;;;;;;17.40;70.64;100450.94;4939202;29;20106;-43
2021/06/16 02:56:00;;;;;;;1.10;0.10;;;;;;;17.21;70.89;100442.16;4938819;29;20470;-44
2021/06/16 02:58:31;;;;;;;0.00;0.00;;;;;;;17.16;70.86;100437.72;4943114;29;20039;-44
2021/06/16 03:01:01;;;;;;;0.10;0.10;;;;;;;17.11;70.79;100440.91;4939982;29;20043;-43
2021/06/16 03:03:30;;;;;;;0.05;0.05;;;;;;;17.09;70.70;100451.69;4938482;29;20039;-44
2021/06/16 03:05:59;;;;;;;0.00;0.00;;;;;;;17.08;70.79;100446.50;4935113;29;20051;-44
2021/06/16 03:08:28;;;;;;;0.13;0.10;;;;;;;17.02;70.79;100443.31;4934293;29;20044;-45
2021/06/16 03:10:58;;;;;;;0.10;0.10;;;;;;;16.99;70.65;100441.28;4935750;29;20090;-43
2021/06/16 03:13:27;;;;;;;0.10;0.10;;;;;;;16.95;70.68;100443.28;4934033;29;20040;-48
2021/06/16 03:15:55;;;;;;;0.57;0.10;;;;;;;16.91;70.55;100434.88;4948860;29;20071;-46
2021/06/16 03:18:22;;;;;;;0.00;0.00;;;;;;;16.85;70.50;100439.25;4936164;29;20048;-46
2021/06/16 03:20:56;;;;;;;0.20;0.17;;;;;;;16.77;70.42;100436.81;4941651;29;20763;-45
2021/06/16 03:23:25;;;;;;;0.38;0.35;;;;;;;16.71;70.58;100441.19;4944675;29;20047;-44
2021/06/16 03:25:54;;;;;;;0.20;0.20;;;;;;;16.66;70.71;100435.97;4934029;29;20151;-47
2021/06/16 03:28:23;;;;;;;0.40;0.35;;;;;;;16.73;70.43;100436.03;4940335;29;20050;-46
2021/06/16 03:30:53;;;;;;;0.40;0.40;;;;;;;16.62;70.66;100433.19;4934010;29;20039;-44
2021/06/16 03:33:21;;;;;;;0.47;0.30;;;;;;;16.59;70.49;100433.16;4934393;29;20047;-46
2021/06/16 03:35:48;;;;;;;0.25;0.25;;;;;;;16.57;70.28;100439.16;4944609;29;20405;-43
2021/06/16 03:38:16;;;;;;;0.30;0.30;;;;;;;16.43;70.50;100439.88;4917005;29;20047;-46
2021/06/16 03:40:44;;;;;;;0.50;0.30;;;;;;;16.30;70.79;100441.41;4935682;29;20074;-46
2021/06/16 03:43:12;;;;;;;0.30;0.30;;;;;;;16.18;71.08;100450.09;4934678;29;20075;-47
2021/06/16 03:45:41;;;;;;;0.63;0.63;;;;;;;16.16;71.22;100449.69;4916838;29;20043;-43
2021/06/16 03:48:10;;;;;;;0.13;0.13;;;;;;;16.20;70.90;100450.50;4934661;29;20051;-44
2021/06/16 03:50:38;;;;;;;0.10;0.10;;;;;;;16.03;71.07;100445.63;4938515;29;20051;-46
2021/06/16 03:53:12;;;;;;;0.17;0.17;;;;;;;16.01;71.12;100444.41;4933606;29;20044;-47
2021/06/16 03:55:45;;;;;;;0.10;0.10;;;;;;;15.99;71.33;100446.78;4934835;29;20055;-46
2021/06/16 03:58:13;;;;;;;0.15;0.13;;;;;;;16.00;71.03;100440.81;4917216;29;20048;-47
2021/06/16 04:00:41;;;;;;;0.10;0.10;;;;;;;15.95;71.38;100443.97;4916686;29;20054;-45
2021/06/16 04:03:10;;;;;;;0.20;0.20;;;;;;;16.01;71.12;100441.63;4933095;29;20047;-46
2021/06/16 04:05:37;;;;;;;0.45;0.10;;;;;;;16.03;70.92;100440.03;4932874;29;20094;-46
2021/06/16 04:08:06;;;;;;;0.20;0.20;;;;;;;15.98;71.26;100440.41;4936071;29;20498;-46
2021/06/16 04:10:34;;;;;;;0.50;0.25;;;;;;;15.99;71.00;100450.38;4937676;29;20047;-46
2021/06/16 04:13:02;;;;;;;0.85;0.85;;;;;;;15.99;71.09;100438.41;4938527;29;20071;-49
2021/06/16 04:15:30;;;;;;;0.80;0.20;;;;;;;16.02;70.99;100446.03;4951263;29;20465;-44
2021/06/16 04:18:00;;;;;;;2.50;0.30;;;;;;;15.93;71.11;100439.97;4951206;29;20094;-46
2021/06/16 04:20:28;;;;;;;2.70;0.50;;;;;;;15.84;71.14;100452.28;4947708;29;20086;-45
2021/06/16 04:22:55;;;;;;;0.52;0.38;;;;;;;15.78;70.88;100445.44;4941294;29;20130;-49
2021/06/16 04:25:23;;;;;;;1.63;0.52;;;;;;;15.78;70.75;100455.78;4926718;29;20138;-45
2021/06/16 04:27:51;;;;;;;1.83;0.70;;;;;;;15.74;70.82;100446.59;4930358;29;20098;-47
2021/06/16 04:30:21;;;;;;;1.92;0.60;;;;;;;15.72;71.04;100447.00;4923714;29;20086;-44
2021/06/16 04:32:48;;;;;;;0.98;0.40;;;;;;;15.65;71.11;100444.13;4936923;29;20050;-44
2021/06/16 04:35:17;;;;;;;3.35;0.70;;;;;;;15.67;71.04;100446.56;4947761;29;20049;-44
2021/06/16 04:37:43;;;;;;;2.55;0.47;;;;;;;15.56;71.25;100454.03;4937240;29;20485;-45
2021/06/16 04:40:11;;;;;;;1.38;0.50;;;;;;;15.51;71.24;100446.03;4938068;29;20050;-46
2021/06/16 04:42:39;;;;;;;2.38;0.50;;;;;;;15.58;71.47;100446.06;4938247;29;20048;-47
2021/06/16 04:45:07;;;;;;;3.20;1.30;;;;;;;15.52;71.43;100451.22;4931268;29;20142;-45
2021/06/16 04:47:34;;;;;;;1.00;0.50;;;;;;;15.51;71.67;100446.84;4938586;29;20039;-46
2021/06/16 04:50:01;;;;;;;2.05;0.28;;;;;;;15.53;71.62;100452.00;4936767;29;20119;-44
2021/06/16 04:52:29;;;;;;;1.85;0.40;;;;;;;15.53;71.67;100457.59;4937065;29;20122;-48
2021/06/16 04:54:55;;;;;;;0.82;0.60;;;;;;;15.51;71.51;100457.19;4942333;29;20122;-45
2021/06/16 04:57:22;;;;;;;1.55;0.45;;;;;;;15.49;71.73;100454.75;4938930;29;20094;-45
2021/06/16 04:59:49;;;;;;;2.10;0.60;;;;;;;15.54;71.45;100448.06;4936618;29;20463;-45
2021/06/16 05:02:16;;;;;;;0.60;0.60;;;;;;;15.60;71.44;100452.06;4936623;29;20106;-45
2021/06/16 05:04:43;;;;;;;0.95;0.45;;;;;;;15.62;71.58;100458.09;4941250;29;20143;-45
2021/06/16 05:07:09;;;;;;;1.75;0.50;;;;;;;15.57;71.37;100450.84;4918900;29;20143;-49
2021/06/16 05:09:36;;;;;;;0.10;0.10;;;;;;;15.48;71.54;100453.19;4928356;29;20506;-47
2021/06/16 05:12:05;;;;;;;0.52;0.30;;;;;;;15.42;71.82;100454.69;4931619;29;20055;-45
2021/06/16 05:14:32;;;;;;;1.73;0.30;;;;;;;15.40;71.77;100442.31;4915933;29;20056;-44
2021/06/16 05:16:59;;;;;;;0.40;0.40;;;;;;;15.31;72.16;100447.38;4941421;29;20067;-45
2021/06/16 05:19:25;;;;;;;0.45;0.20;;;;;;;15.29;72.30;100445.00;4935572;29;20139;-47
2021/06/16 05:21:52;;;;;;;0.50;0.40;;;;;;;15.30;72.37;100446.59;4925136;29;20584;-44
2021/06/16 05:24:20;;;;;;;0.43;0.40;;;;;;;15.16;72.83;100441.69;4942568;29;20070;-45
2021/06/16 05:26:46;;;;;;;0.65;0.57;;;;;;;15.17;72.89;100439.69;4935958;29;20058;-45
2021/06/16 05:29:13;;;;;;;0.60;0.40;;;;;;;15.19;72.96;100452.09;4936670;29;20039;-44
2021/06/16 05:31:40;;;;;;;0.52;0.30;;;;;;;15.24;73.18;100451.72;4936962;29;20134;-49
2021/06/16 05:34:07;;;;;;;0.30;0.22;;;;;;;15.18;73.30;100461.63;4941257;29;20047;-44
2021/06/16 05:36:35;;;;;;;0.28;0.20;;;;;;;15.15;73.18;100456.00;4942974;29;20155;-47
2021/06/16 05:39:05;;;;;;;0.75;0.25;;;;;;;15.07;73.24;100449.56;4941940;29;20048;-45
2021/06/16 05:41:32;;;;;;;1.30;0.20;;;;;;;15.07;73.34;100455.13;4942186;29;20063;-46
2021/06/16 05:43:59;;;;;;;0.38;0.20;;;;;;;15.05;73.81;100457.50;4941770;29;20082;-47
2021/06/16 05:46:26;;;;;;;0.52;0.38;;;;;;;14.92;73.92;100458.97;4947564;29;20131;-45
2021/06/16 05:48:53;;;;;;;2.05;0.70;;;;;;;14.78;74.15;100455.19;4935473;29;20044;-45
2021/06/16 05:51:20;;;;;;;3.83;1.27;;;;;;;14.74;73.78;100457.94;4944758;29;20186;-48
2021/06/16 05:53:48;;;;;;;11.90;2.53;;;;;;;14.71;73.68;100464.28;4919084;29;20074;-46
2021/06/16 05:56:14;;;;;;;14.95;2.92;;;;;;;14.60;73.56;100460.56;4936083;29;20071;-45
2021/06/16 05:58:41;;;;;;;15.60;3.33;;;;;;;14.39;73.74;100454.72;4923288;29;20134;-49
2021/06/16 06:01:10;;;;;;;18.75;5.30;;;;;;;14.43;73.60;100452.75;4935539;29;20077;-45
2021/06/16 06:03:37;;;;;;;10.43;2.75;;;;;;;14.45;73.68;100445.66;4918711;29;20047;-50
2021/06/16 06:06:04;;;;;;;11.45;2.63;;;;;;;14.54;73.44;100453.72;4937614;29;20070;-45
2021/06/16 06:08:30;;;;;;;20.15;2.85;;;;;;;14.48;73.48;100438.53;4926082;29;20098;-45
2021/06/16 06:10:57;;;;;;;13.32;2.85;;;;;;;14.44;73.56;100432.91;4939899;29;20032;-45
2021/06/16 06:13:24;;;;;;;11.45;4.13;;;;;;;14.56;73.13;100429.09;4924236;29;20044;-53
2021/06/16 06:15:51;;;;;;;18.35;3.45;;;;;;;14.52;73.23;100431.00;4930295;29;20115;-45
2021/06/16 06:18:18;;;;;;;18.00;3.08;;;;;;;14.51;72.91;100424.63;4924443;29;20046;-49
2021/06/16 06:20:45;;;;;;;13.15;3.17;;;;;;;14.55;73.04;100421.91;4933481;29;20492;-46
2021/06/16 06:23:12;;;;;;;8.18;2.28;;;;;;;14.53;73.08;100432.63;4940448;29;20150;-45
2021/06/16 06:25:40;;;;;;;15.60;3.08;;;;;;;14.57;72.82;100425.09;4932451;29;20540;-44
2021/06/16 06:28:07;;;;;;;14.98;2.28;;;;;;;14.67;72.56;100432.78;4934768;29;20052;-45
2021/06/16 06:30:35;;;;;;;12.20;2.38;;;;;;;14.71;72.65;100436.41;4919498;29;20130;-44
2021/06/16 06:33:03;;;;;;;15.18;2.67;;;;;;;14.79;72.57;100438.09;4917587;29;20057;-46
2021/06/16 06:35:31;;;;;;;18.42;3.13;;;;;;;14.76;72.06;100436.06;4931735;28;20052;-45
2021/06/16 06:37:57;;;;;;;8.05;2.83;;;;;;;14.68;72.40;100448.31;4937618;29;20122;-43
2021/06/16 06:40:24;;;;;;;12.77;3.13;;;;;;;14.67;72.26;100451.50;4935151;29;20552;-48
2021/06/16 06:42:51;;;;;;;14.70;2.97;;;;;;;14.72;72.14;100454.72;4931812;29;20544;-47
2021/06/16 06:45:19;;;;;;;10.35;2.50;;;;;;;14.69;72.03;100454.69;4938084;29;20046;-45
2021/06/16 06:47:46;;;;;;;14.57;3.17;;;;;;;14.54;72.52;100459.28;4940738;29;20035;-45
2021/06/16 06:50:14;;;;;;;19.35;3.25;;;;;;;14.59;72.43;100450.59;4930897;29;20111;-45
2021/06/16 06:52:43;;;;;;;9.63;2.03;;;;;;;14.61;72.64;100459.38;4932029;29;20095;-48
2021/06/16 06:55:12;;;;;;;11.70;2.35;;;;;;;14.60;72.64;100466.94;4923799;29;20581;-45
2021/06/16 06:57:40;;;;;;;10.48;2.65;;;;;;;14.62;72.78;100463.75;4945940;29;20047;-48
2021/06/16 07:00:09;;;;;;;8.68;2.28;;;;;;;14.66;72.63;100455.47;4931559;29;20449;-48
2021/06/16 07:02:37;;;;;;;13.80;2.75;;;;;;;14.64;72.89;100469.75;4939088;29;20062;-43
2021/06/16 07:05:05;;;;;;;10.40;1.90;;;;;;;14.69;72.94;100457.50;4930887;29;20558;-45
2021/06/16 07:07:32;;;;;;;11.02;2.72;;;;;;;14.79;72.46;100459.59;4930634;29;20079;-44
2021/06/16 07:09:59;;;;;;;9.52;2.85;;;;;;;14.84;72.51;100462.84;4931576;29;20089;-45
2021/06/16 07:12:25;;;;;;;8.02;2.08;;;;;;;14.82;72.53;100458.84;4937626;29;20044;-45
2021/06/16 07:14:54;;;;;;;12.23;3.78;;;;;;;14.92;72.62;100456.16;4940287;29;20517;-47
2021/06/16 07:17:22;;;;;;;11.63;1.80;;;;;;;14.97;72.18;100444.69;4931228;29;20505;-45
2021/06/16 07:19:52;;;;;;;8.95;2.85;;;;;;;14.95;72.23;100458.19;4930662;29;20075;-54
2021/06/16 07:22:20;;;;;;;8.73;2.40;;;;;;;14.91;72.34;100462.91;4936470;29;20059;-45
2021/06/16 07:24:47;;;;;;;17.33;4.57;;;;;;;14.88;71.98;100451.75;4935972;29;20055;-45
2021/06/16 07:27:14;;;;;;;11.50;2.20;;;;;;;14.84;71.78;100457.28;4932177;29;20130;-47
2021/06/16 07:29:41;;;;;;;15.85;4.03;;;;;;;14.87;71.63;100459.31;4919578;29;20067;-45
2021/06/16 07:32:08;;;;;;;12.00;2.70;;;;;;;14.91;71.15;100460.13;4930980;29;20497;-46
2021/06/16 07:34:35;;;;;;;17.73;3.92;;;;;;;14.88;71.12;100451.75;4935065;29;20560;-47
2021/06/16 07:37:02;;;;;;;12.32;3.47;;;;;;;14.97;70.91;100449.44;4930222;29;20528;-45
2021/06/16 07:39:29;;;;;;;13.60;2.75;;;;;;;14.98;70.74;100451.06;4931103;29;20051;-46
2021/06/16 07:41:56;;;;;;;10.60;2.25;;;;;;;15.03;70.68;100450.72;4930480;29;20533;-44
2021/06/16 07:44:22;;;;;;;13.13;3.50;;;;;;;15.14;70.67;100460.78;4930939;29;20098;-44
2021/06/16 07:46:49;;;;;;;15.38;2.72;;;;;;;15.18;70.50;100460.81;4935553;29;20138;-43
2021/06/16 07:49:16;;;;;;;11.57;2.88;;;;;;;15.17;70.47;100457.22;4937186;29;20091;-45
2021/06/16 07:51:45;;;;;;;16.85;4.88;;;;;;;15.24;70.30;100457.31;4936528;29;20406;-45
2021/06/16 07:54:13;;;;;;;9.98;2.85;;;;;;;15.22;70.15;100461.66;4937023;29;20079;-46
2021/06/16 07:56:42;;;;;;;16.83;3.08;;;;;;;15.19;70.12;100445.69;4936912;29;20075;-44
2021/06/16 07:59:13;;;;;;;15.77;2.75;;;;;;;15.22;69.90;100445.72;4940837;29;20079;-48
2021/06/16 08:01:42;;;;;;;18.52;5.05;;;;;;;15.20;69.36;100450.06;4945872;29;20463;-47
2021/06/16 08:04:10;;;;;;;15.88;2.80;;;;;;;15.13;69.58;100448.03;4948859;29;20054;-45
2021/06/16 08:06:37;;;;;;;14.00;4.00;;;;;;;15.15;69.44;100450.44;4947530;28;20138;-45
2021/06/16 08:09:04;;;;;;;16.00;3.05;;;;;;;15.14;69.26;100437.69;4952253;29;20063;-50
2021/06/16 08:11:31;;;;;;;15.95;2.78;;;;;;;15.13;69.52;100439.66;4935981;29;20044;-51
2021/06/16 08:13:59;;;;;;;11.98;3.17;;;;;;;15.17;69.56;100442.47;4917667;29;20052;-49
2021/06/16 08:16:26;;;;;;;15.52;3.20;;;;;;;15.24;69.27;100437.78;4942238;29;20052;-46
2021/06/16 08:18:53;;;;;;;18.90;3.78;;;;;;;15.27;68.91;100435.41;4940818;29;20063;-44
2021/06/16 08:21:20;;;;;;;11.48;2.88;;;;;;;15.24;68.99;100448.13;4931496;29;20139;-46
2021/06/16 08:23:47;;;;;;;11.63;2.83;;;;;;;15.19;68.87;100452.09;4933637;29;20075;-51
2021/06/16 08:26:15;;;;;;;13.65;3.28;;;;;;;15.14;68.96;100446.81;4936642;29;20066;-46
2021/06/16 08:28:42;;;;;;;9.95;2.08;;;;;;;15.22;68.62;100448.50;4936193;29;20142;-46
2021/06/16 08:31:09;;;;;;;12.50;3.05;;;;;;;15.35;68.28;100456.59;4941713;29;20106;-46
2021/06/16 08:33:39;;;;;;;10.90;2.17;;;;;;;15.33;68.00;100459.00;4942268;29;20043;-45
2021/06/16 08:36:07;;;;;;;15.88;3.22;;;;;;;15.43;68.07;100469.44;4937962;28;20078;-47
2021/06/16 08:38:34;;;;;;;11.43;3.00;;;;;;;15.52;67.98;100462.38;4940170;28;20143;-44
2021/06/16 08:41:07;;;;;;;9.88;3.03;;;;;;;15.62;67.65;100469.25;4946160;29;20047;-45
2021/06/16 08:43:42;;;;;;;12.02;3.63;;;;;;;15.67;67.64;100463.31;4938540;29;20040;-47
2021/06/16 08:46:12;;;;;;;13.07;2.70;;;;;;;15.66;67.84;100456.91;4936575;29;20039;-47
2021/06/16 08:48:41;;;;;;;11.15;2.50;;;;;;;15.64;67.37;100461.28;4937274;29;20059;-45
2021/06/16 08:51:11;;;;;;;14.73;2.55;;;;;;;15.56;67.40;100459.63;4934014;29;20504;-45
2021/06/16 08:53:40;;;;;;;;;;;;;;;15.46;67.37;100477.84;4933197;29;20131;-45
2021/06/16 08:56:08;;;;;;;11.25;2.22;;;;;;;15.47;67.62;100457.16;4939717;29;19927;-46
2021/06/16 08:58:41;;;;;;;12.07;3.05;;;;;;;15.52;67.41;100447.59;4932452;29;20099;-43
2021/06/16 09:01:10;;;;;;;11.57;2.30;;;;;;;15.60;67.44;100460.44;4937955;29;20048;-46
2021/06/16 09:03:40;;;;;;;14.40;2.58;;;;;;;15.66;67.37;100464.47;4938198;29;20055;-46
2021/06/16 09:06:13;;;;;;;9.27;2.00;;;;;;;15.68;66.88;100464.88;4942036;29;20043;-45
2021/06/16 09:08:55;;;;;;;12.35;2.40;;;;;;;15.65;66.59;100469.25;4924585;29;20134;-44
2021/06/16 09:11:24;;;;;;;10.75;2.08;;;;;;;15.71;66.88;100473.31;4929928;29;20039;-45
2021/06/16 09:14:10;;;;;;;10.98;2.97;;;;;;;15.81;66.89;100477.34;4930612;29;20873;-48
2021/06/16 09:16:37;;;;;;;16.52;4.00;;;;;;;15.87;66.61;100481.41;4918677;29;20043;-43
2021/06/16 09:19:23;;;;;;;11.73;2.47;;;;;;;15.90;66.26;100479.81;4916503;29;20052;-45
2021/06/16 09:22:02;;;;;;;16.45;2.38;;;;;;;15.96;66.18;100483.88;4933841;29;20500;-45
2021/06/16 09:24:45;;;;;;;10.05;2.90;;;;;;;16.05;65.57;100479.53;4945181;29;20051;-48
2021/06/16 09:27:48;;;;;;;15.02;2.33;;;;;;;16.08;65.43;100481.56;4920975;29;20073;-46
2021/06/16 09:30:18;;;;;;;12.88;3.95;;;;;;;16.02;65.57;100477.50;4931216;29;20409;-45
2021/06/16 09:32:46;;;;;;;14.13;2.70;;;;;;;16.05;65.50;100470.34;4940737;29;20043;-44
2021/06/16 09:35:21;;;;;;;8.35;2.63;;;;;;;16.09;65.77;100471.19;4944653;29;20044;-45
2021/06/16 09:37:49;;;;;;;11.18;2.63;;;;;;;16.14;65.65;100474.41;4932600;29;20051;-46
2021/06/16 09:40:35;;;;;;;13.18;2.08;;;;;;;16.17;65.03;100476.44;4942300;29;20078;-45
2021/06/16 09:43:23;;;;;;;12.10;2.60;;;;;;;16.25;65.28;100474.50;4925287;29;20051;-47
2021/06/16 09:45:59;;;;;;;7.05;2.13;;;;;;;16.31;65.03;100467.31;4936216;29;20173;-45
2021/06/16 09:48:39;;;;;;;12.38;4.10;;;;;;;16.31;65.49;100468.13;4932154;29;20445;-52
2021/06/16 09:51:23;;;;;;;10.52;2.47;;;;;;;16.43;65.08;100464.22;4937686;29;20054;-45
2021/06/16 09:54:11;;;;;;;12.20;3.97;;;;;;;16.51;65.00;100462.25;4933109;29;20039;-44
2021/06/16 09:56:59;;;;;;;12.38;3.10;;;;;;;16.60;64.71;100465.53;4939544;29;20426;-46
2021/06/16 09:59:43;;;;;;;9.77;2.03;;;;;;;16.60;64.42;100466.31;4922090;29;20322;-46
2021/06/16 10:02:24;;;;;;;11.25;2.42;;;;;;;16.62;64.02;100455.56;4937055;29;20134;-45
2021/06/16 10:05:00;;;;;;;13.73;2.92;;;;;;;16.68;64.54;100464.38;4927964;29;20054;-46
2021/06/16 10:07:35;;;;;;;10.60;2.42;;;;;;;16.76;64.38;100454.81;4920496;29;20072;-46
2021/06/16 10:10:09;;;;;;;12.07;3.22;;;;;;;16.81;64.45;100451.63;4930951;29;20058;-47
2021/06/16 10:12:36;;;;;;;12.00;3.30;;;;;;;16.93;64.70;100448.47;4931030;29;20054;-45
2021/06/16 10:15:15;;;;;;;9.38;2.50;;;;;;;16.98;64.97;100453.66;4931584;29;20056;-44
2021/06/16 10:17:46;;;;;;;10.43;3.03;;;;;;;17.00;64.59;100456.88;4935073;29;20038;-47
2021/06/16 10:20:15;;;;;;;10.13;2.20;;;;;;;16.99;64.55;100446.88;4937974;29;20058;-46
2021/06/16 10:22:43;;;;;;;11.55;2.00;;;;;;;16.97;64.36;100438.09;4918833;29;20047;-45
2021/06/16 10:25:10;;;;;;;11.25;2.20;;;;;;;16.87;64.42;100436.84;4935128;29;20814;-47
2021/06/16 10:27:41;;;;;;;12.27;2.28;;;;;;;16.88;64.32;100440.47;4930911;29;20405;-44
2021/06/16 10:30:12;;;;;;;12.57;3.00;;;;;;;16.82;64.17;100444.81;4929872;29;20075;-45
2021/06/16 10:32:48;;;;;;;11.20;2.50;;;;;;;16.81;64.04;100451.63;4932029;29;20115;-46
2021/06/16 10:35:33;;;;;;;12.60;2.60;;;;;;;16.80;63.87;100450.03;4934444;29;20044;-44
2021/06/16 10:38:20;;;;;;;6.03;2.22;;;;;;;16.78;63.61;100456.03;4937205;29;20042;-47
2021/06/16 10:40:47;;;;;;;8.05;2.28;;;;;;;16.84;63.40;100456.41;4912519;29;20189;-46
2021/06/16 10:43:25;;;;;;;6.07;1.73;;;;;;;16.94;63.29;100448.06;4933215;29;20070;-47
2021/06/16 10:45:54;;;;;;;6.78;2.47;;;;;;;16.95;63.00;100457.25;4930552;29;20548;-45
2021/06/16 10:48:40;;;;;;;12.63;2.17;;;;;;;16.92;63.17;100458.84;4933949;29;20449;-45
2021/06/16 10:51:07;;;;;;;6.47;2.05;;;;;;;17.02;63.10;100452.47;4929364;29;20139;-45
2021/06/16 10:53:34;;;;;;;12.02;2.92;;;;;;;17.08;62.95;100457.69;4930258;29;20159;-48
2021/06/16 10:56:00;;;;;;;7.78;1.90;;;;;;;17.17;62.81;100456.13;4930317;29;20055;-48
2021/06/16 10:58:43;;;;;;;5.60;1.65;;;;;;;17.27;61.54;100458.13;4931837;29;20044;-45
2021/06/16 11:01:15;;;;;;;8.13;1.50;;;;;;;17.44;61.31;100442.56;4929621;29;20051;-46
2021/06/16 11:03:54;;;;;;;9.02;1.63;;;;;;;17.60;60.07;100448.59;4930251;29;20397;-46
2021/06/16 11:06:33;;;;;;;7.35;1.67;;;;;;;17.80;59.61;100444.19;4930239;29;20118;-45
2021/06/16 11:09:05;;;;;;;8.38;1.88;;;;;;;17.89;59.54;100450.19;4931425;29;20824;-45
2021/06/16 11:12:04;;;;;;;4.72;1.52;;;;;;;18.11;57.79;100450.94;4927447;29;20039;-47
2021/06/16 11:14:34;;;;;;;8.18;1.95;;;;;;;18.35;59.12;100435.28;4925450;29;20064;-44
2021/06/16 11:17:05;;;;;;;5.65;1.77;;;;;;;18.55;58.17;100440.03;4933671;29;20064;-44
2021/06/16 11:19:34;;;;;;;7.47;2.17;;;;;;;18.68;58.13;100449.59;4931710;29;20159;-49
2021/06/16 11:22:24;;;;;;;6.65;1.35;;;;;;;18.82;56.06;100446.72;4935727;29;20539;-48
2021/06/16 11:25:07;;;;;;;7.40;1.55;;;;;;;18.92;55.77;100449.88;4895354;29;20086;-45
2021/06/16 11:27:56;;;;;;;7.28;1.65;;;;;;;19.04;56.43;100452.22;4926311;29;20082;-44
2021/06/16 11:30:47;;;;;;;7.63;1.40;;;;;;;19.08;54.32;100447.41;4920359;29;20071;-52
2021/06/16 11:33:17;;;;;;;5.13;1.40;;;;;;;19.13;56.32;100449.78;4932630;29;20087;-49
2021/06/16 11:35:58;;;;;;;5.45;1.13;;;;;;;19.12;56.13;100450.97;4939548;29;20043;-45